Time;durP1;ratioP1;P1;durP2;ratioP2;P2;SDS_P1;SDS_P2;PMS_P1;PMS_P2;Temp;Humidity;BMP_temperature;BMP_pressure;BME280_temperature;BME280_humidity;BME280_pressure;Samples;Min_cycle;Max_cycle;Signal;HPM_P1;HPM_P2
2023/10/24 00:01:27;;;;;;;;;6.00;6.00;;;;;;;;5140596;27;45304;-46
2023/10/24 00:03:53;;;;;;;;;10.00;8.33;;;;;;;;5126448;27;45260;-45
2023/10/24 00:06:18;;;;;;;;;8.00;8.00;;;;;;;;5121024;27;45276;-46
2023/10/24 00:08:43;;;;;;;;;7.00;6.00;;;;;;;;5134566;27;45397;-46
2023/10/24 00:11:08;;;;;;;;;5.67;5.67;;;;;;;;5133507;27;45268;-47
2023/10/24 00:13:33;;;;;;;;;6.00;6.00;;;;;;;;5128093;27;45281;-46
2023/10/24 00:15:58;;;;;;;;;7.33;7.33;;;;;;;;5114507;27;45509;-49
2023/10/24 00:18:24;;;;;;;;;2.00;2.00;;;;;;;;5138823;27;45562;-49
2023/10/24 00:20:49;;;;;;;;;6.33;6.33;;;;;;;;5140054;27;45254;-46
2023/10/24 00:23:14;;;;;;;;;8.00;7.00;;;;;;;;5138267;27;45431;-48
2023/10/24 00:25:40;;;;;;;;;8.00;7.67;;;;;;;;5140012;27;45414;-46
2023/10/24 00:28:05;;;;;;;;;6.00;6.00;;;;;;;;5109448;27;47166;-45
2023/10/24 00:30:30;;;;;;;;;6.00;6.00;;;;;;;;5140331;27;45772;-45
2023/10/24 00:32:55;;;;;;;;;7.67;7.00;;;;;;;;5127998;27;45488;-48
2023/10/24 00:35:20;;;;;;;;;5.67;5.67;;;;;;;;5138725;27;46618;-47
2023/10/24 00:37:45;;;;;;;;;8.00;8.00;;;;;;;;5139076;27;45441;-46
2023/10/24 00:40:11;;;;;;;;;8.00;7.00;;;;;;;;5134800;27;45278;-45
2023/10/24 00:42:36;;;;;;;;;8.00;7.00;;;;;;;;5137660;27;45424;-45
2023/10/24 00:45:01;;;;;;;;;5.33;5.33;;;;;;;;5138793;27;45630;-47
2023/10/24 00:47:26;;;;;;;;;5.00;5.00;;;;;;;;5134662;27;45410;-48
2023/10/24 00:49:52;;;;;;;;;5.67;5.67;;;;;;;;5137605;27;45401;-46
2023/10/24 00:52:17;;;;;;;;;6.00;6.00;;;;;;;;5132822;27;45396;-46
2023/10/24 00:54:42;;;;;;;;;8.33;6.33;;;;;;;;5135018;27;45666;-49
2023/10/24 00:57:11;;;;;;;;;7.00;6.00;;;;;;;;5131104;27;45380;-52
2023/10/24 00:59:38;;;;;;;;;7.67;6.33;;;;;;;;5134158;27;45226;-46
2023/10/24 01:02:03;;;;;;;;;8.00;7.00;;;;;;;;5129829;27;45613;-49
2023/10/24 01:04:28;;;;;;;;;10.00;8.33;;;;;;;;5133473;27;45258;-47
2023/10/24 01:06:53;;;;;;;;;8.67;8.00;;;;;;;;5135091;27;45683;-48
2023/10/24 01:09:19;;;;;;;;;8.67;8.00;;;;;;;;5143069;27;45373;-47
2023/10/24 01:11:44;;;;;;;;;6.00;4.67;;;;;;;;5129767;27;45372;-48
2023/10/24 01:14:09;;;;;;;;;13.67;12.67;;;;;;;;5119415;27;45332;-45
2023/10/24 01:16:41;;;;;;;;;9.00;8.00;;;;;;;;5135106;27;46382;-48
2023/10/24 01:19:06;;;;;;;;;10.33;10.33;;;;;;;;5140903;27;45420;-49
2023/10/24 01:21:31;;;;;;;;;10.33;9.33;;;;;;;;5143346;27;45254;-47
2023/10/24 01:23:56;;;;;;;;;8.33;7.67;;;;;;;;5142894;27;45530;-45
2023/10/24 01:26:22;;;;;;;;;11.67;9.67;;;;;;;;5134592;27;46205;-48
2023/10/24 01:28:48;;;;;;;;;9.33;9.33;;;;;;;;5115961;27;45459;-45
2023/10/24 01:31:13;;;;;;;;;9.00;9.00;;;;;;;;5130504;27;45244;-46
2023/10/24 01:33:38;;;;;;;;;11.67;10.00;;;;;;;;5141477;27;45384;-47
2023/10/24 01:36:03;;;;;;;;;5.00;5.00;;;;;;;;5133321;27;46672;-49
2023/10/24 01:38:29;;;;;;;;;9.67;9.00;;;;;;;;5133219;27;45385;-46
2023/10/24 01:40:54;;;;;;;;;9.67;9.00;;;;;;;;5143146;27;45430;-46
2023/10/24 01:43:19;;;;;;;;;10.33;9.00;;;;;;;;5121213;27;45540;-46
2023/10/24 01:45:44;;;;;;;;;9.67;9.00;;;;;;;;5141733;27;45547;-47
2023/10/24 01:48:09;;;;;;;;;9.00;8.67;;;;;;;;5137788;27;45192;-46
2023/10/24 01:50:34;;;;;;;;;10.33;9.67;;;;;;;;5120244;27;45443;-46
2023/10/24 01:53:00;;;;;;;;;9.00;8.33;;;;;;;;5132551;27;45419;-44
2023/10/24 01:55:25;;;;;;;;;11.00;10.00;;;;;;;;5140046;27;45344;-46
2023/10/24 01:57:50;;;;;;;;;11.67;9.67;;;;;;;;5134232;27;45415;-46
2023/10/24 02:00:15;;;;;;;;;9.67;8.00;;;;;;;;5129978;27;45420;-46
2023/10/24 02:02:41;;;;;;;;;11.00;9.00;;;;;;;;5140935;27;45782;-46
2023/10/24 02:05:06;;;;;;;;;10.67;9.00;;;;;;;;5137459;27;45425;-47
2023/10/24 02:07:31;;;;;;;;;7.67;7.67;;;;;;;;5131753;27;45316;-48
2023/10/24 02:09:56;;;;;;;;;10.33;10.00;;;;;;;;5139626;27;45396;-46
2023/10/24 02:12:22;;;;;;;;;8.33;6.33;;;;;;;;5139567;27;45460;-46
2023/10/24 02:14:47;;;;;;;;;9.67;7.67;;;;;;;;5133538;27;45517;-47
2023/10/24 02:17:12;;;;;;;;;10.33;10.00;;;;;;;;5137803;27;45356;-47
2023/10/24 02:19:37;;;;;;;;;7.33;6.67;;;;;;;;5131270;27;45328;-46
2023/10/24 02:22:03;;;;;;;;;11.33;10.00;;;;;;;;5137575;27;45647;-47
2023/10/24 02:24:28;;;;;;;;;12.00;10.67;;;;;;;;5141419;27;46021;-46
2023/10/24 02:26:54;;;;;;;;;9.00;8.00;;;;;;;;5135910;27;45345;-46
2023/10/24 02:29:19;;;;;;;;;8.00;7.33;;;;;;;;5137090;27;45395;-46
2023/10/24 02:31:44;;;;;;;;;12.33;10.67;;;;;;;;5118982;27;45396;-46
2023/10/24 02:34:09;;;;;;;;;9.33;8.67;;;;;;;;5133740;27;45350;-46
2023/10/24 02:36:34;;;;;;;;;13.67;9.00;;;;;;;;5129598;27;45599;-49
2023/10/24 02:39:00;;;;;;;;;12.33;11.00;;;;;;;;5133374;27;45337;-47
2023/10/24 02:41:25;;;;;;;;;11.00;10.00;;;;;;;;5137446;27;45352;-45
2023/10/24 02:43:50;;;;;;;;;7.33;7.33;;;;;;;;5138880;27;46316;-48
2023/10/24 02:46:16;;;;;;;;;10.33;10.33;;;;;;;;5134607;27;45491;-48
2023/10/24 02:48:41;;;;;;;;;9.33;9.00;;;;;;;;5134587;27;45585;-46
2023/10/24 02:51:06;;;;;;;;;11.00;10.00;;;;;;;;5132624;27;45500;-46
2023/10/24 02:53:31;;;;;;;;;8.00;8.00;;;;;;;;5140547;27;45858;-47
2023/10/24 02:56:00;;;;;;;;;9.67;9.00;;;;;;;;5128703;27;45223;-46
2023/10/24 02:58:25;;;;;;;;;10.33;10.33;;;;;;;;5139532;27;45468;-46
2023/10/24 03:00:50;;;;;;;;;8.33;8.33;;;;;;;;5139627;27;45302;-45
2023/10/24 03:03:15;;;;;;;;;8.33;8.00;;;;;;;;5134022;27;45612;-46
2023/10/24 03:05:41;;;;;;;;;9.00;9.00;;;;;;;;5139148;27;45371;-49
2023/10/24 03:08:06;;;;;;;;;11.00;10.00;;;;;;;;5132727;27;45304;-49
2023/10/24 03:10:31;;;;;;;;;7.33;7.33;;;;;;;;5129332;27;45243;-47
2023/10/24 03:12:56;;;;;;;;;9.00;9.00;;;;;;;;5132163;27;46264;-46
2023/10/24 03:15:22;;;;;;;;;11.00;7.00;;;;;;;;5131780;27;45529;-47
2023/10/24 03:17:47;;;;;;;;;8.00;8.00;;;;;;;;5134230;27;45618;-48
2023/10/24 03:20:12;;;;;;;;;9.00;9.00;;;;;;;;5140854;27;45524;-46
2023/10/24 03:22:37;;;;;;;;;10.33;8.67;;;;;;;;5132015;27;45281;-45
2023/10/24 03:25:03;;;;;;;;;10.33;9.00;;;;;;;;5125969;27;45306;-46
2023/10/24 03:27:28;;;;;;;;;9.33;7.33;;;;;;;;5132901;27;45227;-45
2023/10/24 03:29:53;;;;;;;;;8.33;8.00;;;;;;;;5129283;27;45321;-46
2023/10/24 03:32:18;;;;;;;;;10.00;8.00;;;;;;;;5131573;27;46534;-44
2023/10/24 03:34:44;;;;;;;;;8.67;7.67;;;;;;;;5141928;27;45530;-46
2023/10/24 03:37:24;;;;;;;;;7.33;6.33;;;;;;;;5099870;27;45283;-45
2023/10/24 03:39:49;;;;;;;;;6.67;6.33;;;;;;;;5127766;27;45521;-45
2023/10/24 03:42:14;;;;;;;;;9.33;8.33;;;;;;;;5140549;27;46675;-48
2023/10/24 03:44:40;;;;;;;;;9.33;7.67;;;;;;;;5130110;27;45464;-45
2023/10/24 03:47:05;;;;;;;;;9.00;9.00;;;;;;;;5137569;27;45468;-46
2023/10/24 03:49:31;;;;;;;;;7.67;6.67;;;;;;;;5135795;27;45404;-46
2023/10/24 03:51:56;;;;;;;;;8.33;6.67;;;;;;;;5139606;27;46089;-45
2023/10/24 03:54:21;;;;;;;;;7.00;7.00;;;;;;;;5133701;27;45329;-46
2023/10/24 03:56:47;;;;;;;;;12.33;6.67;;;;;;;;5141053;27;45426;-46
2023/10/24 03:59:12;;;;;;;;;9.00;7.00;;;;;;;;5132873;27;45345;-50
2023/10/24 04:01:38;;;;;;;;;7.67;6.00;;;;;;;;5137836;27;45340;-45
2023/10/24 04:04:03;;;;;;;;;11.00;6.00;;;;;;;;5132635;27;45395;-48
2023/10/24 04:06:29;;;;;;;;;6.00;6.00;;;;;;;;5138834;27;45475;-45
2023/10/24 04:08:54;;;;;;;;;9.00;7.33;;;;;;;;5115100;27;45451;-46
2023/10/24 04:11:19;;;;;;;;;10.00;7.33;;;;;;;;5130284;27;45398;-47
2023/10/24 04:13:45;;;;;;;;;5.33;5.33;;;;;;;;5134571;27;45388;-48
2023/10/24 04:16:11;;;;;;;;;8.67;7.67;;;;;;;;5137895;27;45323;-46
2023/10/24 04:18:36;;;;;;;;;7.00;6.00;;;;;;;;5131371;27;45308;-48
2023/10/24 04:21:02;;;;;;;;;5.00;5.00;;;;;;;;5133159;27;45549;-48
2023/10/24 04:23:27;;;;;;;;;6.67;5.67;;;;;;;;5133827;27;45277;-45
2023/10/24 04:25:52;;;;;;;;;7.33;6.00;;;;;;;;5137804;27;45304;-48
2023/10/24 04:28:18;;;;;;;;;5.33;5.33;;;;;;;;5136354;27;45559;-46
2023/10/24 04:30:43;;;;;;;;;6.00;6.00;;;;;;;;5137413;27;45347;-46
2023/10/24 04:33:08;;;;;;;;;5.00;5.00;;;;;;;;5136766;27;45451;-48
2023/10/24 04:35:43;;;;;;;;;8.67;6.00;;;;;;;;5138657;27;45863;-48
2023/10/24 04:38:11;;;;;;;;;6.67;5.33;;;;;;;;5132574;27;45533;-46
2023/10/24 04:40:38;;;;;;;;;5.33;5.33;;;;;;;;5138944;27;45462;-46
2023/10/24 04:43:03;;;;;;;;;5.33;4.67;;;;;;;;5137887;27;45347;-49
2023/10/24 04:45:29;;;;;;;;;4.33;4.33;;;;;;;;5143818;27;45361;-46
2023/10/24 04:47:55;;;;;;;;;8.33;5.33;;;;;;;;5119602;27;45327;-47
2023/10/24 04:50:20;;;;;;;;;8.00;5.00;;;;;;;;5135506;27;46339;-45
2023/10/24 04:52:45;;;;;;;;;7.00;7.00;;;;;;;;5119638;27;45641;-48
2023/10/24 04:55:10;;;;;;;;;5.67;5.67;;;;;;;;5141340;27;45435;-47
2023/10/24 04:57:35;;;;;;;;;6.00;6.00;;;;;;;;5136285;27;45388;-46
2023/10/24 05:00:01;;;;;;;;;5.00;5.00;;;;;;;;5133661;27;45257;-47
2023/10/24 05:02:26;;;;;;;;;6.00;6.00;;;;;;;;5136211;27;45671;-47
2023/10/24 05:04:51;;;;;;;;;6.00;6.00;;;;;;;;5141980;27;45883;-46
2023/10/24 05:07:16;;;;;;;;;5.33;5.33;;;;;;;;5137327;27;45617;-47
2023/10/24 05:09:42;;;;;;;;;4.33;4.00;;;;;;;;5139233;27;45340;-46
2023/10/24 05:12:07;;;;;;;;;6.33;5.33;;;;;;;;5138579;27;45501;-46
2023/10/24 05:14:32;;;;;;;;;3.67;3.00;;;;;;;;5133359;27;45200;-46
2023/10/24 05:16:57;;;;;;;;;4.33;4.33;;;;;;;;5136271;27;45215;-46
2023/10/24 05:19:22;;;;;;;;;4.67;4.67;;;;;;;;5139625;27;46434;-45
2023/10/24 05:21:48;;;;;;;;;4.00;4.00;;;;;;;;5130628;27;45215;-45
2023/10/24 05:24:13;;;;;;;;;3.00;3.00;;;;;;;;5143099;27;45373;-46
2023/10/24 05:26:38;;;;;;;;;4.33;4.00;;;;;;;;5142696;27;45353;-46
2023/10/24 05:29:03;;;;;;;;;3.00;3.00;;;;;;;;5142486;27;46130;-47
2023/10/24 05:31:28;;;;;;;;;2.67;2.67;;;;;;;;5142781;27;45430;-46
2023/10/24 05:33:53;;;;;;;;;3.00;3.00;;;;;;;;5142906;27;45318;-46
2023/10/24 05:36:19;;;;;;;;;3.67;3.67;;;;;;;;5142972;27;45201;-46
2023/10/24 05:38:44;;;;;;;;;4.67;4.67;;;;;;;;5141631;27;46235;-47
2023/10/24 05:41:09;;;;;;;;;4.00;4.00;;;;;;;;5134944;27;45258;-46
2023/10/24 05:43:36;;;;;;;;;5.67;3.67;;;;;;;;5128253;27;45513;-46
2023/10/24 05:46:01;;;;;;;;;5.00;5.00;;;;;;;;5142416;27;45320;-46
2023/10/24 05:48:26;;;;;;;;;2.67;2.67;;;;;;;;5133259;27;45324;-47
2023/10/24 05:50:51;;;;;;;;;5.00;5.00;;;;;;;;5142327;27;45300;-46
2023/10/24 05:53:16;;;;;;;;;4.00;4.00;;;;;;;;5142938;27;45384;-46
2023/10/24 05:55:42;;;;;;;;;5.67;2.33;;;;;;;;5122499;27;45585;-49
2023/10/24 05:58:07;;;;;;;;;7.00;6.00;;;;;;;;5141005;27;45607;-47
2023/10/24 06:00:32;;;;;;;;;4.33;3.33;;;;;;;;5142897;27;45331;-48
2023/10/24 06:02:57;;;;;;;;;6.00;4.33;;;;;;;;5141556;27;45549;-47
2023/10/24 06:05:22;;;;;;;;;3.33;3.00;;;;;;;;5140963;27;45480;-48
2023/10/24 06:07:48;;;;;;;;;3.67;3.67;;;;;;;;5139898;27;46441;-49
2023/10/24 06:10:13;;;;;;;;;5.00;5.00;;;;;;;;5120668;27;45392;-49
2023/10/24 06:12:38;;;;;;;;;5.00;4.33;;;;;;;;5142453;27;45289;-46
2023/10/24 06:15:04;;;;;;;;;5.33;5.33;;;;;;;;5137378;27;45403;-45
2023/10/24 06:17:29;;;;;;;;;6.00;4.67;;;;;;;;5137986;27;45639;-45
2023/10/24 06:19:54;;;;;;;;;6.67;5.67;;;;;;;;5113307;27;45353;-46
2023/10/24 06:22:20;;;;;;;;;4.00;4.00;;;;;;;;5140324;27;45577;-45
2023/10/24 06:24:46;;;;;;;;;5.00;4.67;;;;;;;;5140461;27;45668;-47
2023/10/24 06:27:12;;;;;;;;;6.00;6.00;;;;;;;;5137790;27;45622;-45
2023/10/24 06:29:37;;;;;;;;;5.67;5.67;;;;;;;;5130144;27;45230;-46
2023/10/24 06:32:02;;;;;;;;;7.33;6.67;;;;;;;;5135926;27;45436;-46
2023/10/24 06:34:27;;;;;;;;;7.00;6.00;;;;;;;;5136823;27;45290;-45
2023/10/24 06:36:52;;;;;;;;;8.00;6.00;;;;;;;;5142011;27;45918;-46
2023/10/24 06:39:17;;;;;;;;;5.33;5.33;;;;;;;;5117118;27;45201;-47
2023/10/24 06:41:45;;;;;;;;;6.33;4.67;;;;;;;;5136132;27;45537;-45
2023/10/24 06:44:10;;;;;;;;;7.67;5.67;;;;;;;;5139594;27;45219;-46
2023/10/24 06:46:35;;;;;;;;;7.00;5.67;;;;;;;;5135330;27;45340;-45
2023/10/24 06:49:00;;;;;;;;;7.00;5.00;;;;;;;;5116660;27;45361;-45
2023/10/24 06:51:25;;;;;;;;;7.00;5.33;;;;;;;;5132531;27;45554;-46
2023/10/24 06:53:51;;;;;;;;;4.67;4.67;;;;;;;;5106154;27;45340;-47
2023/10/24 06:56:16;;;;;;;;;5.67;5.67;;;;;;;;5129824;27;46874;-45
2023/10/24 06:58:41;;;;;;;;;6.33;6.33;;;;;;;;5127036;27;45371;-46
2023/10/24 07:01:06;;;;;;;;;7.00;7.00;;;;;;;;5129509;27;45278;-48
2023/10/24 07:03:31;;;;;;;;;7.00;7.00;;;;;;;;5130880;27;45296;-46
2023/10/24 07:05:57;;;;;;;;;7.00;5.67;;;;;;;;5128515;27;45484;-47
2023/10/24 07:08:22;;;;;;;;;6.00;6.00;;;;;;;;5141552;27;45383;-47
2023/10/24 07:10:48;;;;;;;;;6.00;6.00;;;;;;;;5125931;27;45369;-49
2023/10/24 07:13:13;;;;;;;;;7.00;5.67;;;;;;;;5114165;27;45424;-46
2023/10/24 07:15:39;;;;;;;;;6.33;5.67;;;;;;;;5122705;27;47036;-49
2023/10/24 07:18:04;;;;;;;;;7.33;6.00;;;;;;;;5114306;27;45480;-47
2023/10/24 07:20:29;;;;;;;;;5.33;4.67;;;;;;;;5140240;27;45578;-47
2023/10/24 07:22:54;;;;;;;;;5.33;5.33;;;;;;;;5141486;27;45320;-48
2023/10/24 07:25:20;;;;;;;;;6.00;6.00;;;;;;;;5137201;27;45421;-47
2023/10/24 07:27:45;;;;;;;;;4.67;4.67;;;;;;;;5134567;27;45393;-48
2023/10/24 07:30:10;;;;;;;;;6.33;4.67;;;;;;;;5140097;27;45238;-47
2023/10/24 07:32:35;;;;;;;;;8.00;5.33;;;;;;;;5133997;27;45226;-47
2023/10/24 07:35:01;;;;;;;;;5.67;5.67;;;;;;;;5140132;27;45439;-47
2023/10/24 07:37:26;;;;;;;;;6.67;6.67;;;;;;;;5141269;27;45332;-46
2023/10/24 07:39:51;;;;;;;;;6.67;5.67;;;;;;;;5139437;27;45482;-46
2023/10/24 07:42:16;;;;;;;;;7.33;5.00;;;;;;;;5121486;27;46184;-47
2023/10/24 07:44:41;;;;;;;;;7.33;6.00;;;;;;;;5128210;27;45443;-46
2023/10/24 07:47:07;;;;;;;;;4.00;4.00;;;;;;;;5122223;27;45447;-46
2023/10/24 07:49:35;;;;;;;;;5.00;4.00;;;;;;;;5128731;27;45414;-47
2023/10/24 07:52:00;;;;;;;;;4.33;4.00;;;;;;;;5128697;27;45630;-46
2023/10/24 07:54:25;;;;;;;;;4.00;4.00;;;;;;;;5136584;27;46432;-47
2023/10/24 07:56:51;;;;;;;;;5.00;5.00;;;;;;;;5115368;27;45379;-48
2023/10/24 07:59:16;;;;;;;;;5.00;3.33;;;;;;;;5124949;27;45320;-46
2023/10/24 08:01:41;;;;;;;;;4.67;3.67;;;;;;;;5123263;27;45292;-49
2023/10/24 08:04:06;;;;;;;;;3.67;3.00;;;;;;;;5141673;27;45534;-46
2023/10/24 08:06:31;;;;;;;;;4.33;3.67;;;;;;;;5137094;27;45366;-46
2023/10/24 08:08:57;;;;;;;;;3.00;3.00;;;;;;;;5132049;27;45511;-46
2023/10/24 08:11:22;;;;;;;;;3.00;2.33;;;;;;;;5144692;27;45311;-49
2023/10/24 08:13:47;;;;;;;;;2.33;2.33;;;;;;;;5121166;27;46856;-48
2023/10/24 08:16:12;;;;;;;;;3.33;3.33;;;;;;;;5124353;27;45367;-49
2023/10/24 08:18:38;;;;;;;;;3.00;3.00;;;;;;;;5136978;27;45327;-47
2023/10/24 08:21:03;;;;;;;;;4.00;4.00;;;;;;;;5124148;27;45307;-49
2023/10/24 08:23:29;;;;;;;;;4.00;4.00;;;;;;;;5119275;27;46451;-47
2023/10/24 08:25:54;;;;;;;;;0.67;0.67;;;;;;;;5126264;27;45424;-50
2023/10/24 08:28:19;;;;;;;;;5.33;5.00;;;;;;;;5133889;27;45478;-47
2023/10/24 08:30:44;;;;;;;;;3.00;3.00;;;;;;;;5133384;27;45369;-47
2023/10/24 08:33:09;;;;;;;;;2.67;1.00;;;;;;;;5127811;27;45381;-46
2023/10/24 08:35:35;;;;;;;;;3.00;3.00;;;;;;;;5132973;27;45340;-49
2023/10/24 08:38:00;;;;;;;;;2.67;2.67;;;;;;;;5141547;27;45441;-46
2023/10/24 08:40:26;;;;;;;;;4.00;2.00;;;;;;;;5144323;27;45542;-48
2023/10/24 08:42:51;;;;;;;;;2.33;2.33;;;;;;;;5137209;27;45383;-47
2023/10/24 08:45:17;;;;;;;;;3.00;3.00;;;;;;;;5136471;27;45468;-46
2023/10/24 08:47:43;;;;;;;;;3.33;2.00;;;;;;;;5142039;27;45482;-49
2023/10/24 08:50:09;;;;;;;;;3.33;3.33;;;;;;;;5130940;27;45397;-46
2023/10/24 08:52:34;;;;;;;;;2.67;2.67;;;;;;;;5134893;27;45483;-47
2023/10/24 08:55:00;;;;;;;;;2.33;2.33;;;;;;;;5136485;27;45320;-46
2023/10/24 08:57:27;;;;;;;;;2.00;2.00;;;;;;;;5121119;27;45363;-47
2023/10/24 08:59:55;;;;;;;;;6.00;3.67;;;;;;;;5134143;27;45523;-47
2023/10/24 09:02:21;;;;;;;;;3.00;2.33;;;;;;;;5129215;27;45339;-49
2023/10/24 09:04:46;;;;;;;;;2.33;1.67;;;;;;;;5125176;27;45413;-47
2023/10/24 09:07:12;;;;;;;;;1.00;1.00;;;;;;;;5136544;27;45409;-48
2023/10/24 09:09:37;;;;;;;;;1.67;0.67;;;;;;;;5124975;27;45482;-47
2023/10/24 09:12:04;;;;;;;;;0.67;0.67;;;;;;;;5128136;27;45550;-46
2023/10/24 09:14:29;;;;;;;;;1.00;0.67;;;;;;;;5130992;27;45499;-49
2023/10/24 09:16:55;;;;;;;;;1.00;1.00;;;;;;;;5132267;27;45352;-49
2023/10/24 09:19:21;;;;;;;;;0.67;0.67;;;;;;;;5134745;27;45891;-49
2023/10/24 09:21:47;;;;;;;;;1.00;1.00;;;;;;;;5127288;27;46264;-49
2023/10/24 09:24:13;;;;;;;;;1.00;1.00;;;;;;;;5133611;27;45435;-47
2023/10/24 09:26:38;;;;;;;;;0.67;0.67;;;;;;;;5130200;27;45451;-49
2023/10/24 09:29:07;;;;;;;;;1.00;1.00;;;;;;;;5122283;27;45400;-47
2023/10/24 09:31:32;;;;;;;;;1.00;1.00;;;;;;;;5108368;27;45340;-49
2023/10/24 09:33:58;;;;;;;;;2.00;1.00;;;;;;;;5142442;27;45294;-49
2023/10/24 09:36:24;;;;;;;;;0.75;0.75;;;;;;;;5128881;27;45354;-48
2023/10/24 09:38:50;;;;;;;;;0.50;0.50;;;;;;;;5115588;27;45439;-49
2023/10/24 09:41:16;;;;;;;;;2.50;0.00;;;;;;;;5140267;27;46274;-50
2023/10/24 09:43:46;;;;;;;;;0.75;0.75;;;;;;;;5141431;27;45441;-49
2023/10/24 09:46:12;;;;;;;;;1.00;1.00;;;;;;;;5140928;27;45485;-48
2023/10/24 09:48:38;;;;;;;;;1.50;1.50;;;;;;;;5142549;27;45373;-47
2023/10/24 09:51:05;;;;;;;;;2.00;0.25;;;;;;;;5135297;27;45350;-48
2023/10/24 09:53:30;;;;;;;;;0.00;0.00;;;;;;;;5142736;27;46194;-50
2023/10/24 09:55:56;;;;;;;;;3.50;1.00;;;;;;;;5130775;27;45329;-50
2023/10/24 09:58:24;;;;;;;;;1.50;1.50;;;;;;;;5132427;27;45269;-50
2023/10/24 10:00:49;;;;;;;;;2.00;1.00;;;;;;;;5137104;27;45484;-48
2023/10/24 10:03:15;;;;;;;;;0.00;0.00;;;;;;;;5115032;27;45322;-51
2023/10/24 10:05:41;;;;;;;;;0.00;0.00;;;;;;;;5132360;27;45485;-50
2023/10/24 10:08:07;;;;;;;;;2.50;1.25;;;;;;;;5132073;27;45239;-49
2023/10/24 10:10:35;;;;;;;;;2.25;1.00;;;;;;;;5127608;27;45485;-51
2023/10/24 10:13:03;;;;;;;;;1.50;1.00;;;;;;;;5130508;27;45579;-49
2023/10/24 10:15:36;;;;;;;;;1.00;0.00;;;;;;;;5123716;27;45387;-48
2023/10/24 10:18:20;;;;;;;;;1.25;1.25;;;;;;;;5123537;27;45435;-52
2023/10/24 10:20:51;;;;;;;;;1.00;1.00;;;;;;;;5113338;27;46945;-49
2023/10/24 10:23:34;;;;;;;;;0.00;0.00;;;;;;;;5126871;27;45348;-51
2023/10/24 10:26:09;;;;;;;;;1.00;1.00;;;;;;;;5105759;27;45463;-50
2023/10/24 10:28:37;;;;;;;;;1.25;1.00;;;;;;;;5131563;27;45340;-52
2023/10/24 10:31:03;;;;;;;;;1.00;1.00;;;;;;;;5141559;27;45415;-51
2023/10/24 10:33:28;;;;;;;;;2.00;0.50;;;;;;;;5120402;27;46203;-49
2023/10/24 10:36:03;;;;;;;;;2.00;1.00;;;;;;;;5125796;27;45422;-52
2023/10/24 10:38:45;;;;;;;;;1.00;1.00;;;;;;;;5139318;27;45531;-51
2023/10/24 10:41:23;;;;;;;;;2.00;2.00;;;;;;;;5126407;27;46466;-53
2023/10/24 10:43:55;;;;;;;;;2.00;1.00;;;;;;;;5126368;27;45204;-51
2023/10/24 10:46:22;;;;;;;;;2.00;1.00;;;;;;;;5139185;27;45486;-50
2023/10/24 10:48:47;;;;;;;;;0.00;0.00;;;;;;;;5123457;27;45312;-49
2023/10/24 10:51:16;;;;;;;;;2.00;0.75;;;;;;;;5140328;27;45615;-50
2023/10/24 10:53:47;;;;;;;;;2.75;0.00;;;;;;;;5142076;27;45332;-51
2023/10/24 10:56:20;;;;;;;;;0.00;0.00;;;;;;;;5125615;27;45488;-49
2023/10/24 10:58:45;;;;;;;;;1.00;1.00;;;;;;;;5123579;27;45438;-50
2023/10/24 11:01:29;;;;;;;;;0.80;0.80;;;;;;;;5129214;27;46373;-52
2023/10/24 11:03:56;;;;;;;;;1.00;1.00;;;;;;;;5141047;27;45444;-50
2023/10/24 11:06:23;;;;;;;;;1.00;1.00;;;;;;;;5127440;27;45612;-53
2023/10/24 11:09:10;;;;;;;;;0.00;0.00;;;;;;;;5127511;27;46081;-50
2023/10/24 11:11:37;;;;;;;;;0.75;0.75;;;;;;;;5121671;27;46655;-53
2023/10/24 11:14:13;;;;;;;;;1.25;1.00;;;;;;;;5122333;27;45425;-51
2023/10/24 11:16:40;;;;;;;;;1.25;1.00;;;;;;;;5123075;27;45482;-51
2023/10/24 11:19:06;;;;;;;;;1.00;1.00;;;;;;;;5121222;27;45471;-50
2023/10/24 11:21:31;;;;;;;;;1.00;1.00;;;;;;;;5136418;27;46579;-53
2023/10/24 11:23:59;;;;;;;;;3.50;2.00;;;;;;;;5133194;27;45327;-51
2023/10/24 11:26:25;;;;;;;;;1.50;1.50;;;;;;;;5127670;27;45269;-51
2023/10/24 11:28:51;;;;;;;;;1.00;1.00;;;;;;;;5115884;27;45528;-49
2023/10/24 11:31:21;;;;;;;;;1.00;1.00;;;;;;;;5136366;27;47083;-49
2023/10/24 11:33:47;;;;;;;;;1.50;0.00;;;;;;;;5122189;27;45766;-51
2023/10/24 11:36:12;;;;;;;;;3.00;1.00;;;;;;;;5124108;27;45317;-49
2023/10/24 11:38:37;;;;;;;;;1.75;1.00;;;;;;;;5106200;27;45524;-52
2023/10/24 11:41:02;;;;;;;;;1.00;0.00;;;;;;;;5120134;27;45606;-50
2023/10/24 11:43:29;;;;;;;;;1.00;1.00;;;;;;;;5135099;27;45321;-50
2023/10/24 11:45:55;;;;;;;;;1.00;1.00;;;;;;;;5112834;27;45336;-52
2023/10/24 11:48:20;;;;;;;;;4.00;1.00;;;;;;;;5124197;27;45520;-53
2023/10/24 11:50:45;;;;;;;;;1.75;1.75;;;;;;;;5135348;27;46468;-52
2023/10/24 11:53:20;;;;;;;;;0.00;0.00;;;;;;;;5139058;27;45723;-51
2023/10/24 11:55:46;;;;;;;;;1.00;0.00;;;;;;;;5110423;27;45632;-49
2023/10/24 11:58:12;;;;;;;;;0.50;0.50;;;;;;;;5121927;27;45365;-51
2023/10/24 12:00:40;;;;;;;;;3.00;1.00;;;;;;;;5125429;27;46237;-49
2023/10/24 12:03:06;;;;;;;;;0.25;0.25;;;;;;;;5133137;27;45352;-51
2023/10/24 12:05:31;;;;;;;;;0.50;0.50;;;;;;;;5132089;27;45336;-48
2023/10/24 12:07:57;;;;;;;;;1.00;1.00;;;;;;;;5132669;27;45176;-50
2023/10/24 12:10:22;;;;;;;;;0.25;0.25;;;;;;;;5137226;27;46442;-49
2023/10/24 12:12:47;;;;;;;;;2.50;1.00;;;;;;;;5131712;27;45404;-50
2023/10/24 12:15:16;;;;;;;;;1.00;0.00;;;;;;;;5135098;27;45273;-48
2023/10/24 12:17:45;;;;;;;;;0.75;0.75;;;;;;;;5130980;27;45565;-51
2023/10/24 12:20:10;;;;;;;;;0.00;0.00;;;;;;;;5140050;27;46371;-49
2023/10/24 12:22:35;;;;;;;;;2.00;1.00;;;;;;;;5130728;27;45341;-51
2023/10/24 12:25:01;;;;;;;;;1.00;0.00;;;;;;;;5101244;27;45438;-49
2023/10/24 12:27:26;;;;;;;;;1.00;1.00;;;;;;;;5128393;27;45400;-49
2023/10/24 12:29:51;;;;;;;;;1.25;0.75;;;;;;;;5128395;27;46252;-51
2023/10/24 12:32:16;;;;;;;;;1.00;1.00;;;;;;;;5130296;27;45443;-52
2023/10/24 12:34:41;;;;;;;;;1.50;0.00;;;;;;;;5122004;27;45212;-49
2023/10/24 12:37:06;;;;;;;;;1.00;1.00;;;;;;;;5123450;27;45586;-52
2023/10/24 12:39:32;;;;;;;;;1.00;1.00;;;;;;;;5133951;27;45447;-48
2023/10/24 12:41:57;;;;;;;;;0.00;0.00;;;;;;;;5107338;27;45326;-49
2023/10/24 12:44:22;;;;;;;;;0.00;0.00;;;;;;;;5133308;27;45156;-49
2023/10/24 12:46:47;;;;;;;;;0.25;0.25;;;;;;;;5130246;27;45277;-49
2023/10/24 12:49:12;;;;;;;;;3.00;0.00;;;;;;;;5142373;27;46612;-51
2023/10/24 12:51:37;;;;;;;;;0.50;0.50;;;;;;;;5123700;27;45433;-50
2023/10/24 12:54:03;;;;;;;;;0.25;0.00;;;;;;;;5143408;27;45291;-49
2023/10/24 12:56:28;;;;;;;;;1.25;0.00;;;;;;;;5144043;27;45528;-48
2023/10/24 12:58:54;;;;;;;;;1.75;0.50;;;;;;;;5114682;27;47976;-48
2023/10/24 13:01:19;;;;;;;;;1.50;0.50;;;;;;;;5132927;27;45407;-50
2023/10/24 13:03:44;;;;;;;;;1.00;0.25;;;;;;;;5132198;27;45430;-50
2023/10/24 13:06:10;;;;;;;;;0.00;0.00;;;;;;;;5115808;27;45228;-47
2023/10/24 13:08:35;;;;;;;;;1.00;1.00;;;;;;;;5132631;27;46475;-51
2023/10/24 13:11:01;;;;;;;;;0.00;0.00;;;;;;;;5124869;27;45415;-47
2023/10/24 13:13:26;;;;;;;;;2.00;1.00;;;;;;;;5138684;27;45282;-48
2023/10/24 13:15:51;;;;;;;;;2.00;0.00;;;;;;;;5106690;27;45581;-48
2023/10/24 13:18:16;;;;;;;;;2.00;1.00;;;;;;;;5127140;27;46110;-50
2023/10/24 13:20:41;;;;;;;;;1.00;1.00;;;;;;;;5135887;27;45360;-48
2023/10/24 13:23:06;;;;;;;;;0.00;0.00;;;;;;;;5126136;27;45300;-49
2023/10/24 13:25:32;;;;;;;;;0.00;0.00;;;;;;;;5124456;27;45380;-47
2023/10/24 13:27:57;;;;;;;;;0.00;0.00;;;;;;;;5141273;27;46088;-49
2023/10/24 13:30:22;;;;;;;;;1.00;1.00;;;;;;;;5139163;27;45594;-50
2023/10/24 13:32:47;;;;;;;;;0.00;0.00;;;;;;;;5125863;27;45400;-51
2023/10/24 13:35:12;;;;;;;;;0.00;0.00;;;;;;;;5133637;27;45550;-48
2023/10/24 13:37:38;;;;;;;;;0.25;0.00;;;;;;;;5143144;27;45578;-48
2023/10/24 13:40:03;;;;;;;;;0.50;0.50;;;;;;;;5125792;27;45350;-49
2023/10/24 13:42:28;;;;;;;;;0.25;0.25;;;;;;;;5125112;27;45427;-49
2023/10/24 13:44:54;;;;;;;;;2.00;0.25;;;;;;;;5139689;27;45450;-49
2023/10/24 13:47:19;;;;;;;;;0.25;0.25;;;;;;;;5142331;27;45596;-50
2023/10/24 13:49:44;;;;;;;;;1.00;1.00;;;;;;;;5142709;27;45394;-50
2023/10/24 13:52:09;;;;;;;;;1.00;1.00;;;;;;;;5141081;27;45384;-52
2023/10/24 13:54:34;;;;;;;;;1.00;1.00;;;;;;;;5142234;27;45260;-51
2023/10/24 13:57:00;;;;;;;;;2.50;1.00;;;;;;;;5122709;27;47003;-49
2023/10/24 13:59:26;;;;;;;;;2.00;2.00;;;;;;;;5131438;27;45424;-47
2023/10/24 14:01:51;;;;;;;;;1.00;1.00;;;;;;;;5142240;27;45432;-47
2023/10/24 14:04:16;;;;;;;;;0.75;0.00;;;;;;;;5130338;27;45651;-48
2023/10/24 14:06:42;;;;;;;;;3.00;1.25;;;;;;;;5132116;27;46650;-48
2023/10/24 14:09:08;;;;;;;;;0.50;0.00;;;;;;;;5107175;27;45242;-48
2023/10/24 14:11:34;;;;;;;;;0.00;0.00;;;;;;;;5123659;27;45435;-49
2023/10/24 14:13:59;;;;;;;;;0.75;0.75;;;;;;;;5141495;27;45613;-51
2023/10/24 14:16:25;;;;;;;;;0.00;0.00;;;;;;;;5142360;27;45380;-49
2023/10/24 14:18:50;;;;;;;;;0.00;0.00;;;;;;;;5130647;27;45323;-47
2023/10/24 14:21:15;;;;;;;;;0.25;0.25;;;;;;;;5129981;27;45444;-48
2023/10/24 14:23:41;;;;;;;;;0.00;0.00;;;;;;;;5128665;27;45313;-47
2023/10/24 14:26:07;;;;;;;;;0.25;0.25;;;;;;;;5134238;27;45624;-48
2023/10/24 14:28:32;;;;;;;;;1.00;0.25;;;;;;;;5126248;27;45514;-47
2023/10/24 14:30:58;;;;;;;;;0.00;0.00;;;;;;;;5134817;27;45367;-48
2023/10/24 14:33:23;;;;;;;;;0.00;0.00;;;;;;;;5142151;27;45423;-49